Time;durP1;ratioP1;P1;durP2;ratioP2;P2;SDS_P1;SDS_P2;PMS_P1;PMS_P2;Temp;Humidity;BMP_temperature;BMP_pressure;BME280_temperature;BME280_humidity;BME280_pressure;Samples;Min_cycle;Max_cycle;Signal;HPM_P1;HPM_P2
2021/04/11 00:00:46;;;;;;;0.87;0.83;;;13.10;99.90;;;;;;5080750;28;20806;-77
2021/04/11 00:03:18;;;;;;;1.50;1.00;;;13.00;99.90;;;;;;5082579;28;20184;-77
2021/04/11 00:05:44;;;;;;;1.33;0.97;;;13.00;99.90;;;;;;5082282;28;20716;-77
2021/04/11 00:08:12;;;;;;;1.10;1.03;;;12.90;99.90;;;;;;5083225;28;20453;-78
2021/04/11 00:10:41;;;;;;;3.37;0.93;;;12.90;99.90;;;;;;5081741;28;20420;-77
2021/04/11 00:13:13;;;;;;;5.33;1.17;;;12.80;99.90;;;;;;5081303;28;20455;-77
2021/04/11 00:15:39;;;;;;;2.90;1.10;;;12.80;99.90;;;;;;5096273;28;20966;-76
2021/04/11 00:18:05;;;;;;;2.80;1.10;;;12.80;99.90;;;;;;5085197;28;20493;-77
2021/04/11 00:20:30;;;;;;;1.93;1.40;;;12.80;99.90;;;;;;5079581;28;20557;-77
2021/04/11 00:22:56;;;;;;;1.60;1.50;;;12.80;99.90;;;;;;5081945;28;20430;-78
2021/04/11 00:25:30;;;;;;;2.90;1.40;;;12.70;99.90;;;;;;5082651;28;20197;-77
2021/04/11 00:27:56;;;;;;;1.00;1.00;;;12.60;99.90;;;;;;5080333;28;20176;-77
2021/04/11 00:30:23;;;;;;;2.07;1.20;;;12.60;99.90;;;;;;5083404;28;20510;-77
2021/04/11 00:32:49;;;;;;;1.73;1.00;;;12.50;99.90;;;;;;5081464;28;20516;-77
2021/04/11 00:35:17;;;;;;;2.87;1.33;;;12.50;99.90;;;;;;5081696;28;20435;-77
2021/04/11 00:37:42;;;;;;;1.40;1.30;;;12.40;99.90;;;;;;5082466;28;20410;-78
2021/04/11 00:40:35;;;;;;;1.00;0.90;;;12.30;99.90;;;;;;5080611;28;20415;-77
2021/04/11 00:43:06;;;;;;;1.20;1.10;;;12.20;99.90;;;;;;5070939;28;20188;-78
2021/04/11 00:45:44;;;;;;;1.67;1.30;;;12.20;99.90;;;;;;5082838;28;20465;-78
2021/04/11 00:48:11;;;;;;;2.83;1.30;;;12.10;99.90;;;;;;5080477;28;20446;-77
2021/04/11 00:50:38;;;;;;;2.83;1.00;;;11.90;99.90;;;;;;5083071;28;20955;-78
2021/04/11 00:53:05;;;;;;;6.07;1.10;;;11.90;99.90;;;;;;5079549;28;20484;-77
2021/04/11 00:55:32;;;;;;;1.80;1.13;;;11.80;99.90;;;;;;5079807;28;20447;-77
2021/04/11 00:57:57;;;;;;;1.50;1.20;;;11.70;99.90;;;;;;5082913;28;20418;-77
2021/04/11 01:00:31;;;;;;;1.13;1.00;;;11.70;99.90;;;;;;5080569;28;20509;-77
2021/04/11 01:02:57;;;;;;;1.10;1.00;;;11.70;99.90;;;;;;5082620;28;20204;-78
2021/04/11 01:05:28;;;;;;;2.40;0.90;;;11.80;99.90;;;;;;5080371;28;20835;-77
2021/04/11 01:07:55;;;;;;;1.20;1.10;;;11.80;99.90;;;;;;5081445;28;20187;-77
2021/04/11 01:10:27;;;;;;;1.70;1.10;;;11.80;99.90;;;;;;5080890;28;20976;-77
2021/04/11 01:12:53;;;;;;;2.10;1.27;;;11.70;99.90;;;;;;5082060;28;20513;-77
2021/04/11 01:15:26;;;;;;;2.00;1.10;;;11.70;99.90;;;;;;5081091;28;20442;-76
2021/04/11 01:17:52;;;;;;;1.13;1.00;;;11.60;99.90;;;;;;5083969;28;20421;-77
2021/04/11 01:20:19;;;;;;;1.30;0.90;;;11.50;99.90;;;;;;5081528;28;20480;-77
2021/04/11 01:23:22;;;;;;;1.23;1.13;;;11.40;99.90;;;;;;5080022;28;20520;-77
2021/04/11 01:25:49;;;;;;;1.47;1.37;;;11.30;99.90;;;;;;5069914;28;20491;-77
2021/04/11 01:28:23;;;;;;;1.03;1.03;;;11.30;99.90;;;;;;5080959;28;20435;-76
2021/04/11 01:30:53;;;;;;;2.07;1.57;;;11.10;99.90;;;;;;5080786;28;20512;-76
2021/04/11 01:33:21;;;;;;;1.20;1.03;;;11.10;99.90;;;;;;5079009;28;20474;-76
2021/04/11 01:35:50;;;;;;;1.20;1.10;;;11.00;99.90;;;;;;5080987;28;20810;-76
2021/04/11 01:38:16;;;;;;;1.27;1.10;;;10.90;99.90;;;;;;5080990;28;20457;-76
2021/04/11 01:41:08;;;;;;;2.67;1.50;;;10.90;99.90;;;;;;5080352;28;20453;-76
2021/04/11 01:43:37;;;;;;;1.37;1.27;;;10.80;99.90;;;;;;5078232;28;20437;-76
2021/04/11 01:46:04;;;;;;;1.67;1.33;;;10.80;99.90;;;;;;5078921;28;20454;-77
2021/04/11 01:48:30;;;;;;;1.37;1.03;;;10.70;99.90;;;;;;5081255;28;20517;-78
2021/04/11 01:50:56;;;;;;;1.40;1.30;;;10.70;99.90;;;;;;5079348;28;20422;-77
2021/04/11 01:53:23;;;;;;;1.20;1.10;;;10.70;99.90;;;;;;5081447;28;20483;-78
2021/04/11 01:55:51;;;;;;;1.50;1.00;;;10.70;99.90;;;;;;5064564;28;20441;-76
2021/04/11 01:58:16;;;;;;;1.60;1.50;;;10.70;99.90;;;;;;5079268;28;20514;-78
2021/04/11 02:00:47;;;;;;;2.00;1.77;;;10.70;99.90;;;;;;5078566;28;20481;-77
2021/04/11 02:03:16;;;;;;;4.10;1.93;;;10.60;99.90;;;;;;5081142;28;20602;-77
2021/04/11 02:05:44;;;;;;;4.33;1.97;;;10.70;99.90;;;;;;5079688;28;20457;-77
2021/04/11 02:08:19;;;;;;;1.47;1.37;;;10.70;99.90;;;;;;5079645;28;20883;-76
2021/04/11 02:10:48;;;;;;;3.23;1.33;;;10.60;99.90;;;;;;5081936;28;20441;-76
2021/04/11 02:13:16;;;;;;;1.73;1.43;;;10.70;99.90;;;;;;5079014;28;20468;-76
2021/04/11 02:15:46;;;;;;;1.90;1.40;;;10.60;99.90;;;;;;5078675;28;20466;-77
2021/04/11 02:18:13;;;;;;;1.73;1.20;;;10.60;99.90;;;;;;5081291;28;20590;-77
2021/04/11 02:20:40;;;;;;;2.87;1.20;;;10.60;99.90;;;;;;5081902;28;20430;-76
2021/04/11 02:23:08;;;;;;;1.67;1.20;;;10.60;99.90;;;;;;5083325;28;21178;-76
2021/04/11 02:25:40;;;;;;;1.83;1.73;;;10.60;99.90;;;;;;5082599;28;21014;-76
2021/04/11 02:28:05;;;;;;;8.63;1.67;;;10.70;99.90;;;;;;5095909;28;20434;-76
2021/04/11 02:30:31;;;;;;;2.10;1.53;;;10.70;99.90;;;;;;5086199;28;20512;-77
2021/04/11 02:32:57;;;;;;;1.90;1.80;;;10.70;99.90;;;;;;5084438;28;20622;-78
2021/04/11 02:35:26;;;;;;;3.10;1.43;;;10.70;99.90;;;;;;5083088;28;20663;-77
2021/04/11 02:37:56;;;;;;;1.40;1.30;;;10.60;99.90;;;;;;5084559;28;20800;-77
2021/04/11 02:40:29;;;;;;;5.70;1.43;;;10.60;99.90;;;;;;5084040;28;20417;-77
2021/04/11 02:43:00;;;;;;;2.33;1.20;;;10.60;99.90;;;;;;5083503;28;20433;-77
2021/04/11 02:45:36;;;;;;;3.60;1.23;;;10.60;99.90;;;;;;5083101;28;20532;-77
2021/04/11 02:48:03;;;;;;;1.93;1.47;;;10.60;99.90;;;;;;5083023;28;20425;-77
2021/04/11 02:50:31;;;;;;;3.17;1.73;;;10.50;99.90;;;;;;5084205;28;20425;-77
2021/04/11 02:53:02;;;;;;;1.57;1.47;;;10.50;99.90;;;;;;5084679;28;20415;-76
2021/04/11 02:55:32;;;;;;;3.97;1.70;;;10.50;99.90;;;;;;5084787;28;20462;-77
2021/04/11 02:57:58;;;;;;;3.97;2.17;;;10.50;99.90;;;;;;5083149;28;20932;-75
2021/04/11 03:00:26;;;;;;;6.70;1.60;;;10.40;99.90;;;;;;5083537;28;20449;-76
2021/04/11 03:02:52;;;;;;;4.23;1.60;;;10.30;99.90;;;;;;5083433;28;20648;-77
2021/04/11 03:05:19;;;;;;;2.03;1.83;;;10.30;99.90;;;;;;5081323;28;20457;-76
2021/04/11 03:07:48;;;;;;;1.80;1.70;;;10.20;99.90;;;;;;5084481;28;20564;-77
2021/04/11 03:10:21;;;;;;;2.60;1.63;;;10.10;99.90;;;;;;5082188;28;20502;-76
2021/04/11 03:12:49;;;;;;;1.50;1.40;;;10.10;99.90;;;;;;5081237;28;20528;-77
2021/04/11 03:15:15;;;;;;;1.67;1.23;;;10.10;99.90;;;;;;5084840;28;20457;-76
2021/04/11 03:17:42;;;;;;;4.00;1.73;;;10.10;99.90;;;;;;5082061;28;20436;-75
2021/04/11 03:20:13;;;;;;;2.87;1.90;;;10.10;99.90;;;;;;5080397;28;20999;-76
2021/04/11 03:22:39;;;;;;;2.33;2.03;;;10.10;99.90;;;;;;5082095;28;20807;-76
2021/04/11 03:25:05;;;;;;;2.30;2.03;;;10.10;99.90;;;;;;5081595;28;20453;-76
2021/04/11 03:27:55;;;;;;;3.47;1.97;;;10.10;99.90;;;;;;5082233;28;20469;-76
2021/04/11 03:30:38;;;;;;;4.13;1.90;;;10.10;99.90;;;;;;5083082;28;20440;-76
2021/04/11 03:33:11;;;;;;;1.77;1.63;;;10.10;99.90;;;;;;5081733;28;20425;-76
2021/04/11 03:35:39;;;;;;;2.90;2.00;;;10.10;99.90;;;;;;5081427;28;20895;-76
2021/04/11 03:38:07;;;;;;;2.10;2.00;;;10.00;99.90;;;;;;5083933;28;20436;-77
2021/04/11 03:40:35;;;;;;;2.13;1.67;;;10.00;99.90;;;;;;5083384;28;20437;-76
2021/04/11 03:43:06;;;;;;;2.80;1.97;;;10.00;99.90;;;;;;5079210;28;20429;-76
2021/04/11 03:45:33;;;;;;;1.90;1.70;;;10.00;99.90;;;;;;5084647;28;20440;-76
2021/04/11 03:48:18;;;;;;;1.67;1.57;;;10.00;99.90;;;;;;5080041;28;20427;-76
2021/04/11 03:50:55;;;;;;;2.90;2.00;;;9.90;99.90;;;;;;5081253;28;20440;-76
2021/04/11 03:53:25;;;;;;;3.73;2.10;;;9.90;99.90;;;;;;5082172;28;20951;-76
2021/04/11 03:55:57;;;;;;;5.27;2.53;;;9.80;99.90;;;;;;5081930;28;20440;-76
2021/04/11 03:58:31;;;;;;;2.70;2.03;;;9.80;99.90;;;;;;5081146;28;20506;-76
2021/04/11 04:01:06;;;;;;;2.23;2.10;;;9.80;99.90;;;;;;5081017;28;20496;-76
2021/04/11 04:03:34;;;;;;;2.13;1.93;;;9.80;99.90;;;;;;5084184;28;20448;-76
2021/04/11 04:06:10;;;;;;;2.37;2.20;;;9.80;99.90;;;;;;5081762;28;20469;-78
2021/04/11 04:08:36;;;;;;;2.27;2.13;;;9.70;99.90;;;;;;5083556;28;20431;-77
2021/04/11 04:11:30;;;;;;;2.97;2.77;;;9.70;99.90;;;;;;5082334;28;20438;-77
2021/04/11 04:14:16;;;;;;;5.00;1.90;;;9.70;99.90;;;;;;5081253;28;20419;-76
2021/04/11 04:16:44;;;;;;;2.60;1.80;;;9.70;99.90;;;;;;5080954;28;20434;-76
2021/04/11 04:19:52;;;;;;;3.20;2.37;;;9.70;99.90;;;;;;5079815;28;20439;-76
2021/04/11 04:22:35;;;;;;;2.50;2.30;;;9.70;99.90;;;;;;5078870;28;20445;-76
2021/04/11 04:25:13;;;;;;;2.23;2.10;;;9.70;99.90;;;;;;5080367;28;20509;-77
2021/04/11 04:28:25;;;;;;;1.87;1.77;;;9.70;99.90;;;;;;5080823;28;20544;-76
2021/04/11 04:31:01;;;;;;;2.00;1.30;;;9.70;99.90;;;;;;5019908;28;20437;-77
2021/04/11 04:33:38;;;;;;;1.90;1.80;;;9.70;99.90;;;;;;5017010;28;20529;-77
2021/04/11 04:36:34;;;;;;;3.80;2.10;;;9.70;99.90;;;;;;5065724;28;20448;-77
2021/04/11 04:39:29;;;;;;;4.10;1.80;;;9.70;99.90;;;;;;5077705;28;20431;-77
2021/04/11 04:42:18;;;;;;;13.60;2.50;;;9.80;99.90;;;;;;5076420;28;20519;-75
2021/04/11 04:44:58;;;;;;;2.53;2.33;;;9.80;99.90;;;;;;5078380;28;20485;-77
2021/04/11 04:47:47;;;;;;;3.30;2.10;;;9.80;99.90;;;;;;5081119;28;20492;-76
2021/04/11 04:50:24;;;;;;;4.07;2.20;;;9.80;99.90;;;;;;5080890;28;20544;-76
2021/04/11 04:53:05;;;;;;;2.33;2.23;;;9.80;99.90;;;;;;5086182;28;20413;-76
2021/04/11 04:55:33;;;;;;;2.50;2.30;;;9.90;99.90;;;;;;5079763;28;20833;-77
2021/04/11 04:58:04;;;;;;;2.63;2.43;;;9.90;99.90;;;;;;5078104;28;20797;-77
2021/04/11 05:00:29;;;;;;;2.50;2.30;;;9.90;99.90;;;;;;5080820;28;20573;-77
2021/04/11 05:03:08;;;;;;;2.23;1.90;;;9.90;99.90;;;;;;5081931;28;20839;-77
2021/04/11 05:05:44;;;;;;;2.63;2.53;;;9.90;99.90;;;;;;5075221;28;20210;-76
2021/04/11 05:08:17;;;;;;;4.07;3.60;;;9.80;99.90;;;;;;5080013;28;20485;-77
2021/04/11 05:10:51;;;;;;;3.97;3.67;;;9.90;99.90;;;;;;5082017;28;20441;-77
2021/04/11 05:13:25;;;;;;;3.30;2.70;;;9.90;99.90;;;;;;5079616;28;20517;-76
2021/04/11 05:16:03;;;;;;;3.30;3.00;;;9.90;99.90;;;;;;5081665;28;20466;-77
2021/04/11 05:18:44;;;;;;;4.13;3.20;;;9.90;99.90;;;;;;5077579;28;20443;-76
2021/04/11 05:21:17;;;;;;;3.00;2.67;;;9.90;99.90;;;;;;5077658;28;20445;-77
2021/04/11 05:24:02;;;;;;;4.70;2.90;;;9.90;99.90;;;;;;5081811;28;20519;-76
2021/04/11 05:26:46;;;;;;;3.40;2.47;;;10.00;99.90;;;;;;5078587;28;20576;-76
2021/04/11 05:29:26;;;;;;;2.90;2.60;;;10.00;99.90;;;;;;5081231;28;20435;-76
2021/04/11 05:31:54;;;;;;;2.07;1.97;;;10.10;99.90;;;;;;5081178;28;20945;-76
2021/04/11 05:34:21;;;;;;;3.57;2.50;;;10.10;99.90;;;;;;5080964;28;20421;-76
2021/04/11 05:37:00;;;;;;;2.43;2.23;;;10.20;99.90;;;;;;5081537;28;20764;-76
2021/04/11 05:39:53;;;;;;;4.20;3.10;;;10.20;99.90;;;;;;5077731;28;20456;-76
2021/04/11 05:43:06;;;;;;;2.60;2.40;;;10.30;99.90;;;;;;5079864;28;20478;-76
2021/04/11 05:45:37;;;;;;;4.73;3.00;;;10.40;99.90;;;;;;5068915;28;20467;-77
2021/04/11 05:48:17;;;;;;;4.63;3.00;;;10.50;99.90;;;;;;5078175;28;20792;-77
2021/04/11 05:51:03;;;;;;;3.90;2.20;;;10.50;99.90;;;;;;5076577;28;20813;-77
2021/04/11 05:53:38;;;;;;;2.90;2.70;;;10.60;99.90;;;;;;5081016;28;20430;-77
2021/04/11 05:56:10;;;;;;;3.97;2.33;;;10.70;99.90;;;;;;5085758;28;20441;-77
2021/04/11 05:58:45;;;;;;;3.27;3.03;;;10.80;99.90;;;;;;5086034;28;20437;-80
2021/04/11 06:01:14;;;;;;;2.60;2.40;;;10.80;99.90;;;;;;5087168;28;20870;-81
2021/04/11 06:03:48;;;;;;;7.43;2.70;;;10.90;99.90;;;;;;5085142;28;20432;-79
2021/04/11 06:06:24;;;;;;;4.13;3.40;;;11.00;99.90;;;;;;5089369;28;20977;-80
2021/04/11 06:08:58;;;;;;;4.33;2.30;;;11.10;99.90;;;;;;5087905;28;20940;-79
2021/04/11 06:11:32;;;;;;;3.13;2.60;;;11.20;99.90;;;;;;5089461;28;20438;-80
2021/04/11 06:14:13;;;;;;;2.70;2.00;;;11.30;99.90;;;;;;5085843;28;20464;-80
2021/04/11 06:16:39;;;;;;;2.93;2.73;;;11.40;99.90;;;;;;5088631;28;20469;-78
2021/04/11 06:19:07;;;;;;;3.10;2.80;;;11.50;99.90;;;;;;5086355;28;20460;-79
2021/04/11 06:22:07;;;;;;;4.20;2.67;;;11.50;99.90;;;;;;5085762;28;20202;-80
2021/04/11 06:24:52;;;;;;;2.80;2.00;;;11.60;99.90;;;;;;5089223;28;20449;-80
2021/04/11 06:27:25;;;;;;;4.87;2.73;;;11.80;99.90;;;;;;5084748;28;20474;-80
2021/04/11 06:29:57;;;;;;;2.53;2.30;;;12.00;99.90;;;;;;5092435;28;20409;-80
2021/04/11 06:32:24;;;;;;;2.83;2.60;;;12.10;99.90;;;;;;5086227;28;20507;-80
2021/04/11 06:35:00;;;;;;;3.13;2.30;;;12.40;99.90;;;;;;5086937;28;20442;-80
2021/04/11 06:37:28;;;;;;;2.80;1.90;;;12.70;99.90;;;;;;5086705;28;20445;-79
2021/04/11 06:39:55;;;;;;;2.10;1.87;;;12.90;99.90;;;;;;5088499;28;20495;-80
2021/04/11 06:42:45;;;;;;;3.23;2.30;;;13.10;99.90;;;;;;5087454;28;20502;-80
2021/04/11 06:45:42;;;;;;;1.83;1.70;;;13.30;99.90;;;;;;5085828;28;20446;-80
2021/04/11 06:48:28;;;;;;;4.90;2.37;;;13.60;99.90;;;;;;5089250;28;20437;-80
2021/04/11 06:51:20;;;;;;;5.77;2.03;;;13.60;99.90;;;;;;5089412;28;20452;-80
2021/04/11 06:53:57;;;;;;;2.63;1.93;;;13.90;99.90;;;;;;5085267;28;20433;-79
2021/04/11 06:56:53;;;;;;;7.20;1.93;;;14.20;99.90;;;;;;5084583;28;20469;-80
2021/04/11 06:59:47;;;;;;;2.37;1.77;;;14.60;99.90;;;;;;5079940;28;20525;-80
2021/04/11 07:02:51;;;;;;;2.43;2.30;;;14.70;99.90;;;;;;5088508;28;20421;-80
2021/04/11 07:05:27;;;;;;;3.03;2.23;;;14.90;99.90;;;;;;5075062;28;20469;-80
2021/04/11 07:08:30;;;;;;;2.20;2.03;;;14.90;99.90;;;;;;5083957;28;20426;-75
2021/04/11 07:11:21;;;;;;;3.70;1.40;;;15.00;99.90;;;;;;5083618;28;20437;-75
2021/04/11 07:14:07;;;;;;;1.80;1.50;;;14.90;99.90;;;;;;5082118;28;20446;-74
2021/04/11 07:17:12;;;;;;;3.10;2.00;;;14.80;99.90;;;;;;5081674;28;20445;-74
2021/04/11 07:20:10;;;;;;;3.73;2.63;;;14.80;99.90;;;;;;5081488;28;20520;-75
2021/04/11 07:22:54;;;;;;;10.30;2.87;;;14.90;99.90;;;;;;5081258;28;20969;-74
2021/04/11 07:25:58;;;;;;;3.73;2.80;;;14.80;99.90;;;;;;5082701;28;20435;-75
2021/04/11 07:28:33;;;;;;;3.90;2.67;;;14.80;99.90;;;;;;5070829;28;20429;-78
2021/04/11 07:31:17;;;;;;;3.47;1.93;;;14.90;99.90;;;;;;5083089;28;20418;-78
2021/04/11 07:34:09;;;;;;;4.83;2.30;;;15.00;99.90;;;;;;5081527;28;20457;-78
2021/04/11 07:36:43;;;;;;;4.00;1.90;;;15.10;99.90;;;;;;5079635;28;20429;-77
2021/04/11 07:39:36;;;;;;;1.80;1.57;;;15.20;99.90;;;;;;5082087;28;20877;-77
2021/04/11 07:42:29;;;;;;;7.03;1.93;;;15.40;99.90;;;;;;5081175;28;20475;-78
2021/04/11 07:45:18;;;;;;;1.83;1.63;;;15.60;99.90;;;;;;5081930;28;20439;-77
2021/04/11 07:48:12;;;;;;;1.87;1.60;;;15.70;99.90;;;;;;5082537;28;20484;-77
2021/04/11 07:50:53;;;;;;;2.97;1.70;;;16.10;99.90;;;;;;5077066;28;20434;-77
2021/04/11 07:53:54;;;;;;;3.67;1.70;;;16.50;99.90;;;;;;5082869;28;20426;-77
2021/04/11 07:56:31;;;;;;;4.97;1.50;;;16.90;99.90;;;;;;5080816;28;20982;-78
2021/04/11 07:59:20;;;;;;;1.97;1.40;;;17.10;99.90;;;;;;5081516;28;20446;-77
2021/04/11 08:02:18;;;;;;;2.90;1.60;;;17.30;99.90;;;;;;5081664;28;20468;-78
2021/04/11 08:04:46;;;;;;;3.03;1.90;;;17.40;99.90;;;;;;5077804;28;20473;-77
2021/04/11 08:07:26;;;;;;;3.07;1.30;;;17.50;99.90;;;;;;5084292;28;21044;-77
2021/04/11 08:10:13;;;;;;;2.40;1.43;;;17.60;99.90;;;;;;5082744;28;20457;-78
2021/04/11 08:13:05;;;;;;;3.37;0.90;;;17.60;99.90;;;;;;5081436;28;20430;-77
2021/04/11 08:15:58;;;;;;;1.53;0.90;;;18.00;99.90;;;;;;5080220;28;20489;-78
2021/04/11 08:19:09;;;;;;;1.10;0.80;;;18.90;99.90;;;;;;5081962;28;20433;-77
2021/04/11 08:21:46;;;;;;;1.90;0.90;;;19.50;99.90;;;;;;5081757;28;20511;-77
2021/04/11 08:24:36;;;;;;;0.87;0.83;;;19.90;99.90;;;;;;5079100;28;20452;-78
2021/04/11 08:27:21;;;;;;;1.97;1.10;;;19.90;99.90;;;;;;5084978;28;20508;-78
2021/04/11 08:30:24;;;;;;;1.00;0.60;;;20.30;99.90;;;;;;5090460;28;20509;-78
2021/04/11 08:33:22;;;;;;;0.80;0.73;;;21.00;99.90;;;;;;5078637;28;20518;-78
2021/04/11 08:35:57;;;;;;;2.20;0.77;;;21.10;99.90;;;;;;5080773;28;20843;-77
2021/04/11 08:38:41;;;;;;;3.23;0.90;;;21.60;99.90;;;;;;5078774;28;20437;-78
2021/04/11 08:41:20;;;;;;;1.90;1.03;;;21.50;99.90;;;;;;5079934;28;20427;-77
2021/04/11 08:44:11;;;;;;;1.17;0.70;;;21.60;99.90;;;;;;5075671;28;20449;-79
2021/04/11 08:46:44;;;;;;;0.70;0.70;;;21.70;99.90;;;;;;5080319;28;20459;-78
2021/04/11 08:49:35;;;;;;;0.90;0.87;;;22.10;99.90;;;;;;5080496;28;21091;-77
2021/04/11 08:52:09;;;;;;;1.47;1.10;;;22.30;99.90;;;;;;5082935;28;20491;-78
2021/04/11 08:54:48;;;;;;;0.67;0.60;;;22.70;99.90;;;;;;5083142;28;20886;-79
2021/04/11 08:57:37;;;;;;;1.17;0.80;;;23.00;99.90;;;;;;5084374;28;20480;-77
2021/04/11 09:00:19;;;;;;;3.47;0.90;;;22.80;99.90;;;;;;5079040;28;20438;-74
2021/04/11 09:03:29;;;;;;;3.03;0.80;;;23.10;99.90;;;;;;5089747;28;20457;-74
2021/04/11 09:06:23;;;;;;;4.20;0.60;;;22.50;99.90;;;;;;5057816;28;20471;-74
2021/04/11 09:09:09;;;;;;;1.23;0.70;;;21.90;99.90;;;;;;5082616;28;20432;-75
2021/04/11 09:12:01;;;;;;;2.40;0.90;;;21.20;99.90;;;;;;5086321;28;20431;-74
2021/04/11 09:14:44;;;;;;;2.30;0.60;;;20.80;99.90;;;;;;5081617;28;20434;-75
2021/04/11 09:17:38;;;;;;;1.13;0.63;;;20.50;99.90;;;;;;5081405;28;20431;-75
2021/04/11 09:20:28;;;;;;;0.83;0.70;;;20.30;99.90;;;;;;5082371;28;20553;-75
2021/04/11 09:23:13;;;;;;;1.20;0.70;;;20.00;99.90;;;;;;5080661;28;20439;-75
2021/04/11 09:25:42;;;;;;;3.63;0.60;;;20.10;99.90;;;;;;5079361;28;20446;-76
2021/04/11 09:28:29;;;;;;;1.23;1.13;;;20.00;99.90;;;;;;5078645;28;20940;-74
2021/04/11 09:31:34;;;;;;;1.17;0.70;;;19.80;99.90;;;;;;5088051;28;20429;-74
2021/04/11 09:34:33;;;;;;;6.23;0.90;;;19.50;99.90;;;;;;5084340;28;20454;-75
2021/04/11 09:37:36;;;;;;;1.13;0.70;;;19.30;99.90;;;;;;5086623;28;20486;-75
2021/04/11 09:40:29;;;;;;;2.13;0.93;;;18.90;99.90;;;;;;5082178;28;20441;-76
2021/04/11 09:43:21;;;;;;;2.07;0.80;;;18.90;99.90;;;;;;5081214;28;20461;-74
2021/04/11 09:46:06;;;;;;;2.60;0.80;;;19.30;99.90;;;;;;5082199;28;20586;-75
2021/04/11 09:48:47;;;;;;;0.80;0.80;;;19.60;99.90;;;;;;5060531;28;20526;-76
2021/04/11 09:51:34;;;;;;;2.20;0.80;;;20.10;99.90;;;;;;5080427;28;20433;-73
2021/04/11 09:54:16;;;;;;;3.00;0.90;;;20.30;99.90;;;;;;5078796;28;20426;-75
2021/04/11 09:57:02;;;;;;;1.03;0.80;;;20.90;99.90;;;;;;5088656;28;20445;-75
2021/04/11 09:59:52;;;;;;;1.63;0.80;;;21.30;99.90;;;;;;5085324;28;20795;-74
2021/04/11 10:02:54;;;;;;;3.03;1.27;;;22.30;99.90;;;;;;5079469;28;20411;-75
2021/04/11 10:06:07;;;;;;;4.53;0.83;;;22.50;98.70;;;;;;5078112;28;20454;-75
2021/04/11 10:08:51;;;;;;;2.20;0.80;;;22.70;98.90;;;;;;5079374;28;20442;-77
2021/04/11 10:11:31;;;;;;;4.47;0.80;;;22.50;98.40;;;;;;5078407;28;20965;-76
2021/04/11 10:14:08;;;;;;;1.43;1.00;;;22.90;98.60;;;;;;5079081;28;20423;-77
2021/04/11 10:16:50;;;;;;;1.37;1.00;;;23.50;98.20;;;;;;5080581;28;20445;-76
2021/04/11 10:19:32;;;;;;;0.80;0.73;;;23.50;97.80;;;;;;5089330;28;20426;-76
2021/04/11 10:22:16;;;;;;;1.90;1.13;;;23.20;97.50;;;;;;5078649;28;20914;-76
2021/04/11 10:24:47;;;;;;;1.00;0.80;;;23.40;97.20;;;;;;5090392;28;20523;-75
2021/04/11 10:27:27;;;;;;;1.77;0.90;;;22.80;95.70;;;;;;5082668;28;20827;-75
2021/04/11 10:29:56;;;;;;;2.10;1.53;;;22.30;97.10;;;;;;5088588;28;20931;-75
2021/04/11 10:32:44;;;;;;;4.30;1.90;;;21.90;97.80;;;;;;5082270;28;20782;-75
2021/04/11 10:35:16;;;;;;;3.60;1.03;;;21.30;97.20;;;;;;5084298;28;20441;-75
2021/04/11 10:37:46;;;;;;;2.00;1.10;;;20.80;97.80;;;;;;5078404;28;20462;-75
2021/04/11 10:40:39;;;;;;;3.40;1.33;;;20.40;98.10;;;;;;5080069;28;20997;-75
2021/04/11 10:43:31;;;;;;;1.53;1.10;;;20.20;99.00;;;;;;5081064;28;20480;-75
2021/04/11 10:46:21;;;;;;;1.77;1.00;;;20.00;98.20;;;;;;5083622;28;20550;-75
2021/04/11 10:49:18;;;;;;;1.13;0.80;;;19.80;98.60;;;;;;5090154;28;20462;-75
2021/04/11 10:52:10;;;;;;;1.47;1.00;;;19.70;98.30;;;;;;5084645;28;20487;-75
2021/04/11 10:54:47;;;;;;;3.47;2.37;;;19.40;98.60;;;;;;5085078;28;20476;-74
2021/04/11 10:57:28;;;;;;;1.73;1.43;;;19.30;98.50;;;;;;5091977;28;20998;-74
2021/04/11 11:00:15;;;;;;;2.30;2.00;;;19.20;99.30;;;;;;5084933;28;20815;-78
2021/04/11 11:02:59;;;;;;;3.97;3.20;;;19.10;99.20;;;;;;5089997;28;20429;-76
2021/04/11 11:06:01;;;;;;;3.00;2.80;;;19.00;99.60;;;;;;5080012;28;21046;-78
2021/04/11 11:08:44;;;;;;;3.03;2.27;;;18.90;98.60;;;;;;5088954;28;20421;-77
2021/04/11 11:11:37;;;;;;;3.83;1.83;;;18.80;99.40;;;;;;5083199;28;20438;-76
2021/04/11 11:14:33;;;;;;;4.50;2.13;;;18.80;99.50;;;;;;5076303;28;20430;-77
2021/04/11 11:17:34;;;;;;;2.67;2.33;;;18.80;99.20;;;;;;5086625;28;20980;-78
2021/04/11 11:19:59;;;;;;;1.67;1.57;;;18.90;99.60;;;;;;4995215;28;20418;-77
2021/04/11 11:22:43;;;;;;;4.23;1.33;;;18.80;99.60;;;;;;5067685;28;20529;-77
2021/04/11 11:25:44;;;;;;;14.80;8.13;;;18.70;99.40;;;;;;5082007;28;20249;-78
2021/04/11 11:28:47;;;;;;;6.80;4.30;;;18.70;99.30;;;;;;5083333;28;20969;-79
2021/04/11 11:31:34;;;;;;;3.70;2.50;;;18.60;99.80;;;;;;5080893;28;20427;-77
2021/04/11 11:34:18;;;;;;;10.83;5.73;;;18.60;99.90;;;;;;5085964;28;20410;-78
2021/04/11 11:36:56;;;;;;;6.03;1.20;;;18.80;99.90;;;;;;5082739;28;20792;-77
2021/04/11 11:39:42;;;;;;;1.27;1.17;;;18.90;99.90;;;;;;5083975;28;20431;-77
2021/04/11 11:42:52;;;;;;;2.10;1.13;;;18.90;99.90;;;;;;5082443;28;20877;-77
2021/04/11 11:45:24;;;;;;;2.20;1.10;;;19.00;99.90;;;;;;5078982;28;20455;-77
2021/04/11 11:48:13;;;;;;;2.00;1.00;;;19.30;99.90;;;;;;5079899;28;20471;-78
2021/04/11 11:50:53;;;;;;;1.33;1.20;;;19.60;99.90;;;;;;5082218;28;20521;-77
2021/04/11 11:53:57;;;;;;;4.20;1.53;;;19.70;99.90;;;;;;5079953;28;20483;-80
2021/04/11 11:56:32;;;;;;;2.83;1.40;;;20.10;99.90;;;;;;5079469;28;20453;-78
2021/04/11 11:59:08;;;;;;;1.93;1.10;;;20.00;99.30;;;;;;5082307;28;20446;-78
2021/04/11 12:02:08;;;;;;;1.77;1.50;;;20.30;99.80;;;;;;5082628;28;20532;-78
2021/04/11 12:04:46;;;;;;;1.57;1.17;;;20.60;99.80;;;;;;5081906;28;20458;-79
2021/04/11 12:07:37;;;;;;;1.50;1.40;;;21.20;98.50;;;;;;5080011;28;20545;-78
2021/04/11 12:10:27;;;;;;;1.20;1.10;;;21.50;98.40;;;;;;5082249;28;20513;-78
2021/04/11 12:13:17;;;;;;;1.67;1.37;;;21.60;99.10;;;;;;5083297;28;20434;-78
2021/04/11 12:15:48;;;;;;;2.20;0.97;;;21.40;97.90;;;;;;5082075;28;20447;-77
2021/04/11 12:18:22;;;;;;;1.17;0.77;;;21.00;99.90;;;;;;5081342;28;20510;-77
2021/04/11 12:21:09;;;;;;;1.80;1.00;;;20.90;99.90;;;;;;5077877;28;20438;-78
2021/04/11 12:23:45;;;;;;;0.83;0.70;;;20.70;99.90;;;;;;5083564;28;20433;-77
2021/04/11 12:26:20;;;;;;;3.23;0.93;;;20.50;99.90;;;;;;5078482;28;21030;-77
2021/04/11 12:28:47;;;;;;;2.03;0.93;;;20.40;99.90;;;;;;5082538;28;20424;-77
2021/04/11 12:31:27;;;;;;;1.63;1.07;;;20.30;99.90;;;;;;5077598;28;20431;-78
2021/04/11 12:33:56;;;;;;;5.80;1.17;;;20.40;99.90;;;;;;5082004;28;20422;-78
2021/04/11 12:36:58;;;;;;;1.67;0.87;;;20.30;99.90;;;;;;5082090;28;20462;-78
2021/04/11 12:39:28;;;;;;;0.90;0.73;;;20.20;99.90;;;;;;5083118;28;20442;-78
2021/04/11 12:42:03;;;;;;;1.27;1.03;;;19.90;99.90;;;;;;5083487;28;20429;-79
2021/04/11 12:45:00;;;;;;;1.20;0.90;;;19.80;99.90;;;;;;5084398;28;20898;-78
2021/04/11 12:47:42;;;;;;;1.63;1.00;;;19.60;99.90;;;;;;5081766;28;20480;-78
2021/04/11 12:50:22;;;;;;;2.20;0.93;;;19.40;99.90;;;;;;5082139;28;20476;-78
2021/04/11 12:53:03;;;;;;;1.33;1.00;;;19.30;99.90;;;;;;5078578;28;21002;-79
2021/04/11 12:55:38;;;;;;;2.43;1.03;;;19.20;99.90;;;;;;5082676;28;20470;-78
2021/04/11 12:58:19;;;;;;;2.43;1.03;;;19.20;99.90;;;;;;5077615;28;20426;-78
2021/04/11 13:00:53;;;;;;;1.00;1.00;;;19.00;99.90;;;;;;5079830;28;20480;-78
2021/04/11 13:03:27;;;;;;;2.00;0.90;;;19.00;99.90;;;;;;5078906;28;20438;-78
2021/04/11 13:06:04;;;;;;;1.93;1.10;;;19.10;99.90;;;;;;5080061;28;20489;-78
2021/04/11 13:08:51;;;;;;;2.33;1.10;;;19.40;99.90;;;;;;5081810;28;20438;-78
2021/04/11 13:11:28;;;;;;;3.33;1.00;;;19.70;99.90;;;;;;5080532;28;20506;-77
2021/04/11 13:14:28;;;;;;;1.47;0.93;;;20.00;99.90;;;;;;5077842;28;20435;-82
2021/04/11 13:17:06;;;;;;;1.63;1.40;;;20.10;99.90;;;;;;5083710;28;20439;-77
2021/04/11 13:19:53;;;;;;;3.43;1.27;;;20.10;99.90;;;;;;5087364;28;20437;-76
2021/04/11 13:22:28;;;;;;;3.07;1.20;;;20.00;99.90;;;;;;5078548;28;20422;-75
2021/04/11 13:25:02;;;;;;;1.33;0.87;;;19.90;99.90;;;;;;5076992;28;20535;-78
2021/04/11 13:27:54;;;;;;;2.03;0.90;;;19.70;99.90;;;;;;5076725;28;20469;-78
2021/04/11 13:30:45;;;;;;;3.73;0.80;;;19.50;99.90;;;;;;5076920;28;20440;-78
2021/04/11 13:33:22;;;;;;;3.60;0.77;;;19.30;99.90;;;;;;5075807;28;20434;-76
2021/04/11 13:36:04;;;;;;;1.07;0.87;;;19.10;99.90;;;;;;5079414;28;20450;-77
2021/04/11 13:38:41;;;;;;;3.10;1.00;;;18.90;99.90;;;;;;5081559;28;20521;-79
2021/04/11 13:41:29;;;;;;;2.80;1.10;;;18.80;99.90;;;;;;5078776;28;20727;-79
2021/04/11 13:44:15;;;;;;;1.00;0.90;;;18.80;99.90;;;;;;5076398;28;20434;-80
2021/04/11 13:47:07;;;;;;;2.10;1.30;;;18.80;99.90;;;;;;5083869;28;20466;-81
2021/04/11 13:49:53;;;;;;;1.00;0.80;;;18.80;99.90;;;;;;5080737;28;20441;-80
2021/04/11 13:52:27;;;;;;;0.93;0.83;;;19.00;99.90;;;;;;5081366;28;20516;-80